sensor_id;sensor_type;location;lat;lon;timestamp;P1;durP1;ratioP1;P2;durP2;ratioP2
35120;SDS011;21297;52.008;4.576;2023-07-09T00:02:12;14.43;;;10.85;;
35120;SDS011;21297;52.008;4.576;2023-07-09T00:04:59;16.60;;;11.40;;
35120;SDS011;21297;52.008;4.576;2023-07-09T00:07:44;15.10;;;10.82;;
35120;SDS011;21297;52.008;4.576;2023-07-09T00:10:31;15.48;;;11.57;;
35120;SDS011;21297;52.008;4.576;2023-07-09T00:13:16;14.88;;;10.50;;
35120;SDS011;21297;52.008;4.576;2023-07-09T00:19:20;17.15;;;11.85;;
35120;SDS011;21297;52.008;4.576;2023-07-09T00:22:14;16.10;;;11.77;;
35120;SDS011;21297;52.008;4.576;2023-07-09T00:25:01;16.77;;;12.77;;
35120;SDS011;21297;52.008;4.576;2023-07-09T00:27:47;18.73;;;13.10;;
35120;SDS011;21297;52.008;4.576;2023-07-09T00:30:35;17.13;;;12.65;;
35120;SDS011;21297;52.008;4.576;2023-07-09T00:33:20;18.90;;;12.75;;
35120;SDS011;21297;52.008;4.576;2023-07-09T00:36:16;20.05;;;11.73;;
35120;SDS011;21297;52.008;4.576;2023-07-09T00:39:09;16.00;;;11.73;;
35120;SDS011;21297;52.008;4.576;2023-07-09T00:42:01;17.40;;;12.43;;
35120;SDS011;21297;52.008;4.576;2023-07-09T00:44:49;17.63;;;12.10;;
35120;SDS011;21297;52.008;4.576;2023-07-09T00:50:37;21.63;;;13.93;;
35120;SDS011;21297;52.008;4.576;2023-07-09T00:53:32;22.58;;;14.18;;
35120;SDS011;21297;52.008;4.576;2023-07-09T00:56:23;15.98;;;11.43;;
35120;SDS011;21297;52.008;4.576;2023-07-09T00:59:14;18.65;;;12.15;;
35120;SDS011;21297;52.008;4.576;2023-07-09T01:02:02;15.98;;;11.70;;
35120;SDS011;21297;52.008;4.576;2023-07-09T01:04:53;16.38;;;10.93;;
35120;SDS011;21297;52.008;4.576;2023-07-09T01:07:41;18.08;;;13.20;;
35120;SDS011;21297;52.008;4.576;2023-07-09T01:10:31;17.67;;;11.77;;
35120;SDS011;21297;52.008;4.576;2023-07-09T01:13:16;22.23;;;12.25;;
35120;SDS011;21297;52.008;4.576;2023-07-09T01:16:04;17.15;;;11.05;;
35120;SDS011;21297;52.008;4.576;2023-07-09T01:18:50;18.73;;;11.73;;
35120;SDS011;21297;52.008;4.576;2023-07-09T01:21:36;17.23;;;11.13;;
35120;SDS011;21297;52.008;4.576;2023-07-09T01:27:39;18.00;;;11.82;;
35120;SDS011;21297;52.008;4.576;2023-07-09T01:30:28;17.02;;;12.10;;
35120;SDS011;21297;52.008;4.576;2023-07-09T01:33:21;16.33;;;11.27;;
35120;SDS011;21297;52.008;4.576;2023-07-09T01:36:09;16.73;;;11.07;;
35120;SDS011;21297;52.008;4.576;2023-07-09T01:38:55;16.08;;;10.63;;
35120;SDS011;21297;52.008;4.576;2023-07-09T01:41:42;15.90;;;10.48;;
35120;SDS011;21297;52.008;4.576;2023-07-09T01:44:27;16.15;;;10.85;;
35120;SDS011;21297;52.008;4.576;2023-07-09T01:47:14;18.58;;;11.60;;
35120;SDS011;21297;52.008;4.576;2023-07-09T01:50:00;18.05;;;12.07;;
35120;SDS011;21297;52.008;4.576;2023-07-09T01:52:46;16.77;;;11.63;;
35120;SDS011;21297;52.008;4.576;2023-07-09T01:55:35;20.92;;;14.05;;
35120;SDS011;21297;52.008;4.576;2023-07-09T01:58:20;20.20;;;13.32;;
35120;SDS011;21297;52.008;4.576;2023-07-09T02:01:10;17.57;;;12.40;;
35120;SDS011;21297;52.008;4.576;2023-07-09T02:03:55;16.20;;;10.98;;
35120;SDS011;21297;52.008;4.576;2023-07-09T02:06:41;16.35;;;10.77;;
35120;SDS011;21297;52.008;4.576;2023-07-09T02:09:27;16.52;;;11.18;;
35120;SDS011;21297;52.008;4.576;2023-07-09T02:12:13;17.42;;;10.80;;
35120;SDS011;21297;52.008;4.576;2023-07-09T02:14:59;19.38;;;12.35;;
35120;SDS011;21297;52.008;4.576;2023-07-09T02:17:45;20.00;;;11.65;;
35120;SDS011;21297;52.008;4.576;2023-07-09T02:20:31;22.48;;;12.68;;
35120;SDS011;21297;52.008;4.576;2023-07-09T02:23:16;15.98;;;11.40;;
35120;SDS011;21297;52.008;4.576;2023-07-09T02:26:02;16.17;;;10.90;;
35120;SDS011;21297;52.008;4.576;2023-07-09T02:28:48;17.40;;;10.07;;
35120;SDS011;21297;52.008;4.576;2023-07-09T02:31:34;14.60;;;9.85;;
35120;SDS011;21297;52.008;4.576;2023-07-09T02:34:20;18.73;;;10.13;;
35120;SDS011;21297;52.008;4.576;2023-07-09T02:37:06;17.30;;;10.88;;
35120;SDS011;21297;52.008;4.576;2023-07-09T02:39:52;20.38;;;11.68;;
35120;SDS011;21297;52.008;4.576;2023-07-09T02:42:38;15.20;;;10.45;;
35120;SDS011;21297;52.008;4.576;2023-07-09T02:45:24;17.35;;;11.02;;
35120;SDS011;21297;52.008;4.576;2023-07-09T02:48:10;14.43;;;10.07;;
35120;SDS011;21297;52.008;4.576;2023-07-09T02:50:55;18.40;;;11.77;;
35120;SDS011;21297;52.008;4.576;2023-07-09T02:53:41;17.13;;;10.55;;
35120;SDS011;21297;52.008;4.576;2023-07-09T02:56:26;19.90;;;11.32;;
35120;SDS011;21297;52.008;4.576;2023-07-09T02:59:12;19.00;;;10.73;;
35120;SDS011;21297;52.008;4.576;2023-07-09T03:01:59;15.85;;;10.48;;
35120;SDS011;21297;52.008;4.576;2023-07-09T03:04:45;17.65;;;11.20;;
35120;SDS011;21297;52.008;4.576;2023-07-09T03:07:31;17.70;;;10.07;;
35120;SDS011;21297;52.008;4.576;2023-07-09T03:10:16;15.85;;;10.35;;
35120;SDS011;21297;52.008;4.576;2023-07-09T03:13:02;18.90;;;10.90;;
35120;SDS011;21297;52.008;4.576;2023-07-09T03:15:55;20.38;;;11.00;;
35120;SDS011;21297;52.008;4.576;2023-07-09T03:18:42;20.02;;;12.82;;
35120;SDS011;21297;52.008;4.576;2023-07-09T03:21:28;22.30;;;12.15;;
35120;SDS011;21297;52.008;4.576;2023-07-09T03:24:14;16.35;;;10.00;;
35120;SDS011;21297;52.008;4.576;2023-07-09T03:27:03;17.25;;;9.68;;
35120;SDS011;21297;52.008;4.576;2023-07-09T03:29:49;17.88;;;10.35;;
35120;SDS011;21297;52.008;4.576;2023-07-09T03:32:35;14.77;;;9.70;;
35120;SDS011;21297;52.008;4.576;2023-07-09T03:35:21;18.25;;;10.88;;
35120;SDS011;21297;52.008;4.576;2023-07-09T03:38:07;19.65;;;9.95;;
35120;SDS011;21297;52.008;4.576;2023-07-09T03:40:55;16.52;;;11.07;;
35120;SDS011;21297;52.008;4.576;2023-07-09T03:43:41;17.67;;;11.40;;
35120;SDS011;21297;52.008;4.576;2023-07-09T03:46:27;17.33;;;10.68;;
35120;SDS011;21297;52.008;4.576;2023-07-09T03:49:12;17.92;;;12.02;;
35120;SDS011;21297;52.008;4.576;2023-07-09T03:51:58;16.98;;;11.63;;
35120;SDS011;21297;52.008;4.576;2023-07-09T03:54:44;15.80;;;10.70;;
35120;SDS011;21297;52.008;4.576;2023-07-09T03:57:32;16.80;;;10.55;;
35120;SDS011;21297;52.008;4.576;2023-07-09T04:00:19;15.48;;;11.15;;
35120;SDS011;21297;52.008;4.576;2023-07-09T04:03:04;19.20;;;11.52;;
35120;SDS011;21297;52.008;4.576;2023-07-09T04:05:53;19.40;;;12.77;;
35120;SDS011;21297;52.008;4.576;2023-07-09T04:08:39;17.02;;;11.32;;
35120;SDS011;21297;52.008;4.576;2023-07-09T04:11:25;16.02;;;10.70;;
35120;SDS011;21297;52.008;4.576;2023-07-09T04:14:10;17.17;;;10.82;;
35120;SDS011;21297;52.008;4.576;2023-07-09T04:16:56;15.02;;;10.00;;
35120;SDS011;21297;52.008;4.576;2023-07-09T04:19:42;18.70;;;11.50;;
35120;SDS011;21297;52.008;4.576;2023-07-09T04:22:28;15.40;;;9.88;;
35120;SDS011;21297;52.008;4.576;2023-07-09T04:25:14;17.05;;;10.25;;
35120;SDS011;21297;52.008;4.576;2023-07-09T04:28:00;15.27;;;10.13;;
35120;SDS011;21297;52.008;4.576;2023-07-09T04:30:49;18.70;;;12.35;;
35120;SDS011;21297;52.008;4.576;2023-07-09T04:36:21;13.43;;;8.57;;
35120;SDS011;21297;52.008;4.576;2023-07-09T04:39:07;20.85;;;11.70;;
35120;SDS011;21297;52.008;4.576;2023-07-09T04:41:53;14.90;;;10.20;;
35120;SDS011;21297;52.008;4.576;2023-07-09T04:44:39;14.38;;;9.60;;
35120;SDS011;21297;52.008;4.576;2023-07-09T04:47:26;16.92;;;9.70;;
35120;SDS011;21297;52.008;4.576;2023-07-09T04:50:13;31.80;;;16.27;;
35120;SDS011;21297;52.008;4.576;2023-07-09T04:52:59;23.55;;;13.07;;
35120;SDS011;21297;52.008;4.576;2023-07-09T04:55:45;28.35;;;16.02;;
35120;SDS011;21297;52.008;4.576;2023-07-09T04:58:31;24.42;;;14.50;;
35120;SDS011;21297;52.008;4.576;2023-07-09T05:01:17;21.65;;;14.55;;
35120;SDS011;21297;52.008;4.576;2023-07-09T05:04:02;23.13;;;15.40;;
35120;SDS011;21297;52.008;4.576;2023-07-09T05:06:48;25.05;;;17.17;;
35120;SDS011;21297;52.008;4.576;2023-07-09T05:09:34;29.60;;;16.75;;
35120;SDS011;21297;52.008;4.576;2023-07-09T05:12:20;27.17;;;17.63;;
35120;SDS011;21297;52.008;4.576;2023-07-09T05:15:06;25.40;;;16.58;;
35120;SDS011;21297;52.008;4.576;2023-07-09T05:17:52;20.40;;;13.40;;
35120;SDS011;21297;52.008;4.576;2023-07-09T05:20:38;16.77;;;12.18;;
35120;SDS011;21297;52.008;4.576;2023-07-09T05:23:25;21.98;;;15.70;;
35120;SDS011;21297;52.008;4.576;2023-07-09T05:26:11;27.13;;;15.90;;
35120;SDS011;21297;52.008;4.576;2023-07-09T05:28:56;20.40;;;14.27;;
35120;SDS011;21297;52.008;4.576;2023-07-09T05:31:42;21.48;;;14.93;;
35120;SDS011;21297;52.008;4.576;2023-07-09T05:34:28;23.65;;;16.80;;
35120;SDS011;21297;52.008;4.576;2023-07-09T05:37:14;26.20;;;17.40;;
35120;SDS011;21297;52.008;4.576;2023-07-09T05:39:59;24.17;;;18.42;;
35120;SDS011;21297;52.008;4.576;2023-07-09T05:42:45;26.48;;;19.05;;
35120;SDS011;21297;52.008;4.576;2023-07-09T05:45:31;23.08;;;18.27;;
35120;SDS011;21297;52.008;4.576;2023-07-09T05:48:17;25.15;;;18.83;;
35120;SDS011;21297;52.008;4.576;2023-07-09T05:51:02;27.55;;;18.38;;
35120;SDS011;21297;52.008;4.576;2023-07-09T05:53:48;24.48;;;18.40;;
35120;SDS011;21297;52.008;4.576;2023-07-09T05:56:34;28.67;;;20.05;;
35120;SDS011;21297;52.008;4.576;2023-07-09T05:59:19;29.73;;;22.10;;
35120;SDS011;21297;52.008;4.576;2023-07-09T06:02:09;30.20;;;22.88;;
35120;SDS011;21297;52.008;4.576;2023-07-09T06:04:57;35.03;;;24.80;;
35120;SDS011;21297;52.008;4.576;2023-07-09T06:07:43;32.05;;;24.15;;
35120;SDS011;21297;52.008;4.576;2023-07-09T06:10:29;31.83;;;25.50;;
35120;SDS011;21297;52.008;4.576;2023-07-09T06:13:15;34.17;;;26.55;;
35120;SDS011;21297;52.008;4.576;2023-07-09T06:16:01;32.40;;;26.42;;
35120;SDS011;21297;52.008;4.576;2023-07-09T06:18:46;34.25;;;27.75;;
35120;SDS011;21297;52.008;4.576;2023-07-09T06:21:32;38.78;;;27.77;;
35120;SDS011;21297;52.008;4.576;2023-07-09T06:24:18;38.88;;;27.63;;
35120;SDS011;21297;52.008;4.576;2023-07-09T06:27:04;32.08;;;25.92;;
35120;SDS011;21297;52.008;4.576;2023-07-09T06:29:50;33.90;;;25.92;;
35120;SDS011;21297;52.008;4.576;2023-07-09T06:32:35;34.33;;;25.65;;
35120;SDS011;21297;52.008;4.576;2023-07-09T06:35:21;34.13;;;25.58;;
35120;SDS011;21297;52.008;4.576;2023-07-09T06:38:07;32.10;;;26.85;;
35120;SDS011;21297;52.008;4.576;2023-07-09T06:40:53;32.13;;;23.13;;
35120;SDS011;21297;52.008;4.576;2023-07-09T06:43:39;28.73;;;21.45;;
35120;SDS011;21297;52.008;4.576;2023-07-09T06:46:24;32.03;;;22.38;;
35120;SDS011;21297;52.008;4.576;2023-07-09T06:49:10;31.20;;;23.95;;
35120;SDS011;21297;52.008;4.576;2023-07-09T06:51:56;32.45;;;22.52;;
35120;SDS011;21297;52.008;4.576;2023-07-09T06:54:41;30.50;;;22.08;;
35120;SDS011;21297;52.008;4.576;2023-07-09T06:57:27;26.98;;;21.30;;
35120;SDS011;21297;52.008;4.576;2023-07-09T07:00:13;30.58;;;19.88;;
35120;SDS011;21297;52.008;4.576;2023-07-09T07:02:59;26.30;;;19.67;;
35120;SDS011;21297;52.008;4.576;2023-07-09T07:05:45;25.05;;;17.33;;
35120;SDS011;21297;52.008;4.576;2023-07-09T07:08:32;29.73;;;18.60;;
35120;SDS011;21297;52.008;4.576;2023-07-09T07:11:18;28.25;;;19.45;;
35120;SDS011;21297;52.008;4.576;2023-07-09T07:14:04;26.85;;;18.27;;
35120;SDS011;21297;52.008;4.576;2023-07-09T07:16:49;24.95;;;17.55;;
35120;SDS011;21297;52.008;4.576;2023-07-09T07:19:35;22.23;;;16.52;;
35120;SDS011;21297;52.008;4.576;2023-07-09T07:22:21;25.75;;;16.60;;
35120;SDS011;21297;52.008;4.576;2023-07-09T07:25:07;24.85;;;16.70;;
35120;SDS011;21297;52.008;4.576;2023-07-09T07:27:53;24.30;;;16.00;;
35120;SDS011;21297;52.008;4.576;2023-07-09T07:30:38;21.02;;;14.45;;
35120;SDS011;21297;52.008;4.576;2023-07-09T07:33:24;19.95;;;12.55;;
35120;SDS011;21297;52.008;4.576;2023-07-09T07:36:10;18.95;;;12.15;;
35120;SDS011;21297;52.008;4.576;2023-07-09T07:38:56;21.55;;;13.02;;
35120;SDS011;21297;52.008;4.576;2023-07-09T07:41:42;17.88;;;12.70;;
35120;SDS011;21297;52.008;4.576;2023-07-09T07:44:27;24.15;;;15.50;;
35120;SDS011;21297;52.008;4.576;2023-07-09T07:47:13;20.77;;;13.15;;
35120;SDS011;21297;52.008;4.576;2023-07-09T07:49:59;20.27;;;11.93;;
35120;SDS011;21297;52.008;4.576;2023-07-09T07:52:44;17.67;;;10.85;;
35120;SDS011;21297;52.008;4.576;2023-07-09T07:55:30;15.77;;;10.55;;
35120;SDS011;21297;52.008;4.576;2023-07-09T07:58:16;17.40;;;9.30;;
35120;SDS011;21297;52.008;4.576;2023-07-09T08:01:02;16.42;;;8.82;;
35120;SDS011;21297;52.008;4.576;2023-07-09T08:03:48;17.48;;;8.25;;
35120;SDS011;21297;52.008;4.576;2023-07-09T08:06:34;16.55;;;8.68;;
35120;SDS011;21297;52.008;4.576;2023-07-09T08:09:19;15.77;;;8.30;;
35120;SDS011;21297;52.008;4.576;2023-07-09T08:12:05;13.15;;;7.25;;
35120;SDS011;21297;52.008;4.576;2023-07-09T08:14:56;18.10;;;8.10;;
35120;SDS011;21297;52.008;4.576;2023-07-09T08:17:42;15.05;;;8.52;;
35120;SDS011;21297;52.008;4.576;2023-07-09T08:20:27;14.52;;;8.85;;
35120;SDS011;21297;52.008;4.576;2023-07-09T08:23:13;15.63;;;8.10;;
35120;SDS011;21297;52.008;4.576;2023-07-09T08:25:59;17.40;;;8.50;;
35120;SDS011;21297;52.008;4.576;2023-07-09T08:28:48;13.85;;;7.07;;
35120;SDS011;21297;52.008;4.576;2023-07-09T08:31:33;17.48;;;7.47;;
35120;SDS011;21297;52.008;4.576;2023-07-09T08:34:19;13.75;;;7.75;;
35120;SDS011;21297;52.008;4.576;2023-07-09T08:37:05;14.77;;;7.05;;
35120;SDS011;21297;52.008;4.576;2023-07-09T08:39:52;13.77;;;6.70;;
35120;SDS011;21297;52.008;4.576;2023-07-09T08:42:42;14.43;;;7.78;;
35120;SDS011;21297;52.008;4.576;2023-07-09T08:48:31;13.82;;;6.38;;
35120;SDS011;21297;52.008;4.576;2023-07-09T08:57:22;12.82;;;6.25;;
35120;SDS011;21297;52.008;4.576;2023-07-09T09:03:04;12.27;;;6.82;;
35120;SDS011;21297;52.008;4.576;2023-07-09T09:05:56;11.32;;;5.50;;
35120;SDS011;21297;52.008;4.576;2023-07-09T09:15:23;9.70;;;4.57;;
35120;SDS011;21297;52.008;4.576;2023-07-09T09:18:18;12.32;;;5.00;;
35120;SDS011;21297;52.008;4.576;2023-07-09T09:21:29;11.10;;;4.35;;
35120;SDS011;21297;52.008;4.576;2023-07-09T09:24:30;13.38;;;4.32;;
35120;SDS011;21297;52.008;4.576;2023-07-09T09:27:21;9.18;;;4.07;;
35120;SDS011;21297;52.008;4.576;2023-07-09T09:30:14;10.32;;;4.18;;
35120;SDS011;21297;52.008;4.576;2023-07-09T09:33:02;8.23;;;4.00;;
35120;SDS011;21297;52.008;4.576;2023-07-09T09:36:00;7.93;;;4.03;;
35120;SDS011;21297;52.008;4.576;2023-07-09T09:38:49;9.10;;;3.88;;
35120;SDS011;21297;52.008;4.576;2023-07-09T09:41:36;7.38;;;3.95;;
35120;SDS011;21297;52.008;4.576;2023-07-09T09:44:27;9.68;;;4.60;;
35120;SDS011;21297;52.008;4.576;2023-07-09T09:47:14;10.25;;;3.45;;
35120;SDS011;21297;52.008;4.576;2023-07-09T09:50:00;11.88;;;4.10;;
35120;SDS011;21297;52.008;4.576;2023-07-09T09:52:46;9.25;;;4.43;;
35120;SDS011;21297;52.008;4.576;2023-07-09T09:55:32;8.52;;;4.43;;
35120;SDS011;21297;52.008;4.576;2023-07-09T09:58:19;10.93;;;4.13;;
35120;SDS011;21297;52.008;4.576;2023-07-09T10:01:04;10.38;;;4.60;;
35120;SDS011;21297;52.008;4.576;2023-07-09T10:03:50;11.23;;;5.00;;
35120;SDS011;21297;52.008;4.576;2023-07-09T10:06:43;8.98;;;4.78;;
35120;SDS011;21297;52.008;4.576;2023-07-09T10:12:42;10.00;;;4.40;;
35120;SDS011;21297;52.008;4.576;2023-07-09T10:18:32;9.07;;;3.83;;
35120;SDS011;21297;52.008;4.576;2023-07-09T10:21:41;8.27;;;3.50;;
35120;SDS011;21297;52.008;4.576;2023-07-09T10:30:48;10.20;;;3.95;;
35120;SDS011;21297;52.008;4.576;2023-07-09T10:34:04;10.50;;;3.50;;
35120;SDS011;21297;52.008;4.576;2023-07-09T10:39:51;7.45;;;3.45;;
35120;SDS011;21297;52.008;4.576;2023-07-09T10:42:44;9.63;;;4.03;;
35120;SDS011;21297;52.008;4.576;2023-07-09T10:45:43;8.73;;;3.63;;
35120;SDS011;21297;52.008;4.576;2023-07-09T10:51:28;7.22;;;3.38;;
35120;SDS011;21297;52.008;4.576;2023-07-09T10:54:28;11.88;;;3.92;;
35120;SDS011;21297;52.008;4.576;2023-07-09T10:57:30;9.75;;;4.07;;
35120;SDS011;21297;52.008;4.576;2023-07-09T11:00:32;8.25;;;4.30;;
35120;SDS011;21297;52.008;4.576;2023-07-09T11:03:29;8.50;;;4.57;;
35120;SDS011;21297;52.008;4.576;2023-07-09T11:06:41;8.93;;;4.00;;
35120;SDS011;21297;52.008;4.576;2023-07-09T11:09:32;10.70;;;5.05;;
35120;SDS011;21297;52.008;4.576;2023-07-09T11:12:24;7.13;;;3.70;;
35120;SDS011;21297;52.008;4.576;2023-07-09T11:15:12;10.82;;;4.60;;
35120;SDS011;21297;52.008;4.576;2023-07-09T11:18:04;11.00;;;3.78;;
35120;SDS011;21297;52.008;4.576;2023-07-09T11:20:58;8.63;;;4.00;;
35120;SDS011;21297;52.008;4.576;2023-07-09T11:23:52;10.63;;;3.85;;
35120;SDS011;21297;52.008;4.576;2023-07-09T11:26:46;7.53;;;4.18;;
35120;SDS011;21297;52.008;4.576;2023-07-09T11:29:32;10.27;;;3.95;;
35120;SDS011;21297;52.008;4.576;2023-07-09T11:32:21;9.65;;;4.00;;
35120;SDS011;21297;52.008;4.576;2023-07-09T11:35:08;8.02;;;3.88;;
35120;SDS011;21297;52.008;4.576;2023-07-09T11:37:55;8.77;;;3.63;;
35120;SDS011;21297;52.008;4.576;2023-07-09T11:40:48;8.98;;;3.83;;
35120;SDS011;21297;52.008;4.576;2023-07-09T11:43:35;8.43;;;4.32;;
35120;SDS011;21297;52.008;4.576;2023-07-09T11:46:32;11.85;;;3.70;;
35120;SDS011;21297;52.008;4.576;2023-07-09T11:49:21;10.82;;;4.00;;
35120;SDS011;21297;52.008;4.576;2023-07-09T11:52:10;11.05;;;3.42;;
35120;SDS011;21297;52.008;4.576;2023-07-09T11:54:56;9.15;;;3.20;;
35120;SDS011;21297;52.008;4.576;2023-07-09T11:57:46;11.10;;;3.83;;
35120;SDS011;21297;52.008;4.576;2023-07-09T12:00:39;6.63;;;2.88;;
35120;SDS011;21297;52.008;4.576;2023-07-09T12:03:28;7.43;;;2.50;;
35120;SDS011;21297;52.008;4.576;2023-07-09T12:06:19;6.57;;;3.00;;
35120;SDS011;21297;52.008;4.576;2023-07-09T12:09:11;7.22;;;3.05;;
35120;SDS011;21297;52.008;4.576;2023-07-09T12:12:01;6.28;;;2.65;;
35120;SDS011;21297;52.008;4.576;2023-07-09T12:14:48;7.88;;;2.75;;
35120;SDS011;21297;52.008;4.576;2023-07-09T12:17:34;9.07;;;3.05;;
35120;SDS011;21297;52.008;4.576;2023-07-09T12:20:19;10.30;;;2.78;;
35120;SDS011;21297;52.008;4.576;2023-07-09T12:23:16;6.55;;;2.40;;
35120;SDS011;21297;52.008;4.576;2023-07-09T12:26:05;7.90;;;2.67;;
35120;SDS011;21297;52.008;4.576;2023-07-09T12:28:52;7.93;;;3.10;;
35120;SDS011;21297;52.008;4.576;2023-07-09T12:31:39;15.27;;;3.90;;
35120;SDS011;21297;52.008;4.576;2023-07-09T12:34:26;12.25;;;4.10;;
35120;SDS011;21297;52.008;4.576;2023-07-09T12:37:18;10.98;;;4.03;;
35120;SDS011;21297;52.008;4.576;2023-07-09T12:40:09;11.70;;;4.53;;
35120;SDS011;21297;52.008;4.576;2023-07-09T12:43:07;15.00;;;4.45;;
35120;SDS011;21297;52.008;4.576;2023-07-09T12:45:57;12.02;;;4.53;;
35120;SDS011;21297;52.008;4.576;2023-07-09T12:48:45;15.00;;;4.57;;
35120;SDS011;21297;52.008;4.576;2023-07-09T12:51:32;23.15;;;4.93;;
35120;SDS011;21297;52.008;4.576;2023-07-09T12:54:20;14.95;;;4.60;;
35120;SDS011;21297;52.008;4.576;2023-07-09T12:57:13;11.80;;;4.03;;
35120;SDS011;21297;52.008;4.576;2023-07-09T13:00:05;14.35;;;4.47;;
35120;SDS011;21297;52.008;4.576;2023-07-09T13:03:01;16.58;;;4.28;;
35120;SDS011;21297;52.008;4.576;2023-07-09T13:05:56;14.30;;;4.35;;
35120;SDS011;21297;52.008;4.576;2023-07-09T13:08:46;14.82;;;3.67;;
35120;SDS011;21297;52.008;4.576;2023-07-09T13:11:44;14.25;;;4.70;;
35120;SDS011;21297;52.008;4.576;2023-07-09T13:14:36;13.25;;;4.40;;
35120;SDS011;21297;52.008;4.576;2023-07-09T13:17:22;17.95;;;5.30;;
35120;SDS011;21297;52.008;4.576;2023-07-09T13:20:08;16.08;;;5.53;;
35120;SDS011;21297;52.008;4.576;2023-07-09T13:22:56;17.15;;;6.18;;
35120;SDS011;21297;52.008;4.576;2023-07-09T13:25:46;15.82;;;6.88;;
35120;SDS011;21297;52.008;4.576;2023-07-09T13:28:32;19.80;;;7.40;;
35120;SDS011;21297;52.008;4.576;2023-07-09T13:31:19;21.00;;;7.72;;
35120;SDS011;21297;52.008;4.576;2023-07-09T13:34:10;22.02;;;8.25;;
35120;SDS011;21297;52.008;4.576;2023-07-09T13:37:05;18.30;;;7.10;;
35120;SDS011;21297;52.008;4.576;2023-07-09T13:39:59;22.75;;;8.95;;
35120;SDS011;21297;52.008;4.576;2023-07-09T13:42:46;19.73;;;8.25;;
35120;SDS011;21297;52.008;4.576;2023-07-09T13:45:36;18.67;;;8.90;;
35120;SDS011;21297;52.008;4.576;2023-07-09T13:48:22;16.95;;;7.40;;
35120;SDS011;21297;52.008;4.576;2023-07-09T13:51:19;18.63;;;8.65;;
35120;SDS011;21297;52.008;4.576;2023-07-09T13:54:16;17.70;;;8.00;;
35120;SDS011;21297;52.008;4.576;2023-07-09T13:57:12;17.15;;;7.15;;
35120;SDS011;21297;52.008;4.576;2023-07-09T14:00:00;18.50;;;7.30;;
35120;SDS011;21297;52.008;4.576;2023-07-09T14:02:46;13.50;;;6.35;;
35120;SDS011;21297;52.008;4.576;2023-07-09T14:05:33;13.55;;;5.30;;
35120;SDS011;21297;52.008;4.576;2023-07-09T14:08:19;15.77;;;6.72;;
35120;SDS011;21297;52.008;4.576;2023-07-09T14:11:10;17.35;;;7.10;;
35120;SDS011;21297;52.008;4.576;2023-07-09T14:13:58;16.83;;;6.63;;
35120;SDS011;21297;52.008;4.576;2023-07-09T14:16:43;17.02;;;6.68;;
35120;SDS011;21297;52.008;4.576;2023-07-09T14:19:29;14.98;;;5.65;;
35120;SDS011;21297;52.008;4.576;2023-07-09T14:24:51;19.60;;;7.43;;
35120;SDS011;21297;52.008;4.576;2023-07-09T14:27:39;16.58;;;6.75;;
35120;SDS011;21297;52.008;4.576;2023-07-09T14:30:25;14.27;;;6.45;;
35120;SDS011;21297;52.008;4.576;2023-07-09T14:33:12;25.63;;;8.40;;
35120;SDS011;21297;52.008;4.576;2023-07-09T14:36:02;24.60;;;8.32;;
35120;SDS011;21297;52.008;4.576;2023-07-09T14:38:48;18.98;;;7.90;;
35120;SDS011;21297;52.008;4.576;2023-07-09T14:41:34;34.72;;;12.07;;
35120;SDS011;21297;52.008;4.576;2023-07-09T14:47:30;22.63;;;9.65;;
35120;SDS011;21297;52.008;4.576;2023-07-09T14:56:30;20.98;;;10.30;;
35120;SDS011;21297;52.008;4.576;2023-07-09T14:59:24;15.80;;;8.50;;
35120;SDS011;21297;52.008;4.576;2023-07-09T15:07:20;17.25;;;6.63;;
35120;SDS011;21297;52.008;4.576;2023-07-09T15:10:08;14.60;;;5.85;;
35120;SDS011;21297;52.008;4.576;2023-07-09T15:12:58;13.48;;;5.80;;
35120;SDS011;21297;52.008;4.576;2023-07-09T15:15:43;12.98;;;5.88;;
35120;SDS011;21297;52.008;4.576;2023-07-09T15:18:30;13.57;;;6.22;;
35120;SDS011;21297;52.008;4.576;2023-07-09T15:21:18;9.95;;;5.00;;
35120;SDS011;21297;52.008;4.576;2023-07-09T15:24:11;11.00;;;5.15;;
35120;SDS011;21297;52.008;4.576;2023-07-09T15:27:04;12.20;;;5.57;;
35120;SDS011;21297;52.008;4.576;2023-07-09T15:29:50;9.52;;;5.97;;
35120;SDS011;21297;52.008;4.576;2023-07-09T15:32:43;13.18;;;6.13;;
35120;SDS011;21297;52.008;4.576;2023-07-09T15:35:33;17.48;;;7.38;;
35120;SDS011;21297;52.008;4.576;2023-07-09T15:38:33;12.18;;;7.07;;
35120;SDS011;21297;52.008;4.576;2023-07-09T15:41:20;13.23;;;6.55;;
35120;SDS011;21297;52.008;4.576;2023-07-09T15:44:12;12.82;;;5.47;;
35120;SDS011;21297;52.008;4.576;2023-07-09T15:46:59;18.95;;;6.43;;
35120;SDS011;21297;52.008;4.576;2023-07-09T15:49:45;14.73;;;5.90;;
35120;SDS011;21297;52.008;4.576;2023-07-09T15:52:31;12.00;;;5.55;;
35120;SDS011;21297;52.008;4.576;2023-07-09T15:58:07;15.60;;;4.68;;
35120;SDS011;21297;52.008;4.576;2023-07-09T16:01:01;8.77;;;4.00;;
35120;SDS011;21297;52.008;4.576;2023-07-09T16:03:50;9.35;;;3.50;;
35120;SDS011;21297;52.008;4.576;2023-07-09T16:06:37;8.52;;;2.38;;
35120;SDS011;21297;52.008;4.576;2023-07-09T16:09:23;8.70;;;2.20;;
35120;SDS011;21297;52.008;4.576;2023-07-09T16:12:10;10.57;;;2.90;;
35120;SDS011;21297;52.008;4.576;2023-07-09T16:14:58;8.63;;;2.60;;
35120;SDS011;21297;52.008;4.576;2023-07-09T16:17:44;9.90;;;2.05;;
35120;SDS011;21297;52.008;4.576;2023-07-09T16:20:31;9.13;;;2.33;;
35120;SDS011;21297;52.008;4.576;2023-07-09T16:23:18;5.30;;;2.38;;
35120;SDS011;21297;52.008;4.576;2023-07-09T16:26:05;8.75;;;2.55;;
35120;SDS011;21297;52.008;4.576;2023-07-09T16:28:51;10.90;;;2.72;;
35120;SDS011;21297;52.008;4.576;2023-07-09T16:31:37;10.88;;;2.90;;
35120;SDS011;21297;52.008;4.576;2023-07-09T16:34:23;8.45;;;2.92;;
35120;SDS011;21297;52.008;4.576;2023-07-09T16:37:14;11.95;;;3.70;;
35120;SDS011;21297;52.008;4.576;2023-07-09T16:40:05;9.20;;;3.28;;
35120;SDS011;21297;52.008;4.576;2023-07-09T16:42:58;9.48;;;2.97;;
35120;SDS011;21297;52.008;4.576;2023-07-09T16:45:46;9.10;;;3.10;;
35120;SDS011;21297;52.008;4.576;2023-07-09T16:48:33;12.05;;;2.78;;
35120;SDS011;21297;52.008;4.576;2023-07-09T16:51:18;12.35;;;3.13;;
35120;SDS011;21297;52.008;4.576;2023-07-09T16:54:09;8.30;;;2.40;;
35120;SDS011;21297;52.008;4.576;2023-07-09T16:56:55;9.18;;;3.08;;
35120;SDS011;21297;52.008;4.576;2023-07-09T16:59:42;11.43;;;2.85;;
35120;SDS011;21297;52.008;4.576;2023-07-09T17:02:30;8.07;;;2.60;;
35120;SDS011;21297;52.008;4.576;2023-07-09T17:05:17;9.18;;;2.40;;
35120;SDS011;21297;52.008;4.576;2023-07-09T17:08:03;13.02;;;2.85;;
35120;SDS011;21297;52.008;4.576;2023-07-09T17:10:49;10.02;;;2.97;;
35120;SDS011;21297;52.008;4.576;2023-07-09T17:13:36;10.07;;;2.72;;
35120;SDS011;21297;52.008;4.576;2023-07-09T17:16:21;11.23;;;3.13;;
35120;SDS011;21297;52.008;4.576;2023-07-09T17:19:10;10.27;;;2.55;;
35120;SDS011;21297;52.008;4.576;2023-07-09T17:21:57;8.93;;;2.67;;
35120;SDS011;21297;52.008;4.576;2023-07-09T17:24:43;16.70;;;3.38;;
35120;SDS011;21297;52.008;4.576;2023-07-09T17:27:29;18.02;;;3.15;;
35120;SDS011;21297;52.008;4.576;2023-07-09T17:30:16;11.68;;;2.60;;
35120;SDS011;21297;52.008;4.576;2023-07-09T17:33:04;8.02;;;2.70;;
35120;SDS011;21297;52.008;4.576;2023-07-09T17:35:51;11.27;;;2.78;;
35120;SDS011;21297;52.008;4.576;2023-07-09T17:38:37;12.85;;;2.92;;
35120;SDS011;21297;52.008;4.576;2023-07-09T17:41:23;11.85;;;3.30;;
35120;SDS011;21297;52.008;4.576;2023-07-09T17:44:12;13.68;;;2.72;;